sensor_id;sensor_type;location;lat;lon;timestamp;P1;durP1;ratioP1;P2;durP2;ratioP2
20298;SDS011;10308;42.688;23.256;2023-02-15T00:01:21;26.80;;;24.50;;
20298;SDS011;10308;42.688;23.256;2023-02-15T00:03:49;27.42;;;25.02;;
20298;SDS011;10308;42.688;23.256;2023-02-15T00:06:17;26.33;;;24.02;;
20298;SDS011;10308;42.688;23.256;2023-02-15T00:08:45;26.90;;;24.60;;
20298;SDS011;10308;42.688;23.256;2023-02-15T00:11:15;26.15;;;23.95;;
20298;SDS011;10308;42.688;23.256;2023-02-15T00:14:08;26.52;;;24.33;;
20298;SDS011;10308;42.688;23.256;2023-02-15T00:16:38;26.25;;;24.05;;
20298;SDS011;10308;42.688;23.256;2023-02-15T00:19:10;25.85;;;23.67;;
20298;SDS011;10308;42.688;23.256;2023-02-15T00:21:39;26.33;;;24.02;;
20298;SDS011;10308;42.688;23.256;2023-02-15T00:24:08;26.05;;;23.95;;
20298;SDS011;10308;42.688;23.256;2023-02-15T00:26:37;26.52;;;24.33;;
20298;SDS011;10308;42.688;23.256;2023-02-15T00:29:07;26.40;;;24.00;;
20298;SDS011;10308;42.688;23.256;2023-02-15T00:31:36;25.50;;;23.30;;
20298;SDS011;10308;42.688;23.256;2023-02-15T00:34:03;25.63;;;23.52;;
20298;SDS011;10308;42.688;23.256;2023-02-15T00:36:35;25.27;;;23.17;;
20298;SDS011;10308;42.688;23.256;2023-02-15T00:39:02;25.48;;;23.48;;
20298;SDS011;10308;42.688;23.256;2023-02-15T00:41:33;24.67;;;22.48;;
20298;SDS011;10308;42.688;23.256;2023-02-15T00:44:01;26.13;;;23.92;;
20298;SDS011;10308;42.688;23.256;2023-02-15T00:46:34;24.65;;;22.63;;
20298;SDS011;10308;42.688;23.256;2023-02-15T00:49:03;25.58;;;23.40;;
20298;SDS011;10308;42.688;23.256;2023-02-15T00:51:31;25.10;;;22.90;;
20298;SDS011;10308;42.688;23.256;2023-02-15T00:54:00;25.58;;;23.45;;
20298;SDS011;10308;42.688;23.256;2023-02-15T00:56:29;25.77;;;23.60;;
20298;SDS011;10308;42.688;23.256;2023-02-15T00:58:57;25.48;;;23.38;;
20298;SDS011;10308;42.688;23.256;2023-02-15T01:01:26;25.40;;;23.38;;
20298;SDS011;10308;42.688;23.256;2023-02-15T01:03:55;25.65;;;23.55;;
20298;SDS011;10308;42.688;23.256;2023-02-15T01:06:22;24.98;;;22.95;;
20298;SDS011;10308;42.688;23.256;2023-02-15T01:08:51;24.45;;;22.35;;
20298;SDS011;10308;42.688;23.256;2023-02-15T01:11:20;25.17;;;22.98;;
20298;SDS011;10308;42.688;23.256;2023-02-15T01:13:54;25.15;;;23.02;;
20298;SDS011;10308;42.688;23.256;2023-02-15T01:16:23;25.88;;;23.67;;
20298;SDS011;10308;42.688;23.256;2023-02-15T01:18:52;24.88;;;22.67;;
20298;SDS011;10308;42.688;23.256;2023-02-15T01:21:24;24.88;;;22.77;;
20298;SDS011;10308;42.688;23.256;2023-02-15T01:23:56;25.38;;;23.27;;
20298;SDS011;10308;42.688;23.256;2023-02-15T01:26:26;24.90;;;22.90;;
20298;SDS011;10308;42.688;23.256;2023-02-15T01:28:54;25.17;;;23.17;;
20298;SDS011;10308;42.688;23.256;2023-02-15T01:31:22;25.13;;;22.92;;
20298;SDS011;10308;42.688;23.256;2023-02-15T01:33:53;25.25;;;23.20;;
20298;SDS011;10308;42.688;23.256;2023-02-15T01:36:20;24.67;;;22.67;;
20298;SDS011;10308;42.688;23.256;2023-02-15T01:38:50;23.90;;;21.90;;
20298;SDS011;10308;42.688;23.256;2023-02-15T01:41:18;24.67;;;22.67;;
20298;SDS011;10308;42.688;23.256;2023-02-15T01:43:58;25.35;;;23.35;;
20298;SDS011;10308;42.688;23.256;2023-02-15T01:46:30;24.45;;;22.45;;
20298;SDS011;10308;42.688;23.256;2023-02-15T01:49:05;25.13;;;22.83;;
20298;SDS011;10308;42.688;23.256;2023-02-15T01:51:39;25.33;;;23.23;;
20298;SDS011;10308;42.688;23.256;2023-02-15T01:54:17;24.88;;;22.83;;
20298;SDS011;10308;42.688;23.256;2023-02-15T01:56:51;23.95;;;22.05;;
20298;SDS011;10308;42.688;23.256;2023-02-15T01:59:20;25.83;;;23.73;;
20298;SDS011;10308;42.688;23.256;2023-02-15T02:01:49;23.63;;;21.73;;
20298;SDS011;10308;42.688;23.256;2023-02-15T02:04:22;24.00;;;22.02;;
20298;SDS011;10308;42.688;23.256;2023-02-15T02:06:55;23.95;;;21.90;;
20298;SDS011;10308;42.688;23.256;2023-02-15T02:09:24;23.23;;;21.33;;
20298;SDS011;10308;42.688;23.256;2023-02-15T02:11:53;23.90;;;22.00;;
20298;SDS011;10308;42.688;23.256;2023-02-15T02:14:21;22.90;;;21.10;;
20298;SDS011;10308;42.688;23.256;2023-02-15T02:16:52;23.88;;;21.98;;
20298;SDS011;10308;42.688;23.256;2023-02-15T02:19:33;22.50;;;20.58;;
20298;SDS011;10308;42.688;23.256;2023-02-15T02:22:34;22.83;;;20.92;;
20298;SDS011;10308;42.688;23.256;2023-02-15T02:25:42;22.95;;;21.08;;
20298;SDS011;10308;42.688;23.256;2023-02-15T02:32:02;22.40;;;20.60;;
20298;SDS011;10308;42.688;23.256;2023-02-15T02:35:16;22.33;;;20.42;;
20298;SDS011;10308;42.688;23.256;2023-02-15T02:37:59;23.05;;;21.15;;
20298;SDS011;10308;42.688;23.256;2023-02-15T02:40:34;21.98;;;20.17;;
20298;SDS011;10308;42.688;23.256;2023-02-15T02:43:11;22.70;;;20.90;;
20298;SDS011;10308;42.688;23.256;2023-02-15T02:45:50;22.23;;;20.42;;
20298;SDS011;10308;42.688;23.256;2023-02-15T02:48:24;22.42;;;20.63;;
20298;SDS011;10308;42.688;23.256;2023-02-15T02:50:59;22.30;;;20.40;;
20298;SDS011;10308;42.688;23.256;2023-02-15T02:53:28;22.10;;;20.30;;
20298;SDS011;10308;42.688;23.256;2023-02-15T02:55:58;22.83;;;20.92;;
20298;SDS011;10308;42.688;23.256;2023-02-15T02:58:29;22.30;;;20.40;;
20298;SDS011;10308;42.688;23.256;2023-02-15T03:01:03;21.90;;;20.10;;
20298;SDS011;10308;42.688;23.256;2023-02-15T03:03:36;22.10;;;20.30;;
20298;SDS011;10308;42.688;23.256;2023-02-15T03:06:08;22.00;;;20.20;;
20298;SDS011;10308;42.688;23.256;2023-02-15T03:08:40;22.70;;;20.90;;
20298;SDS011;10308;42.688;23.256;2023-02-15T03:11:13;22.35;;;20.55;;
20298;SDS011;10308;42.688;23.256;2023-02-15T03:13:41;22.50;;;20.65;;
20298;SDS011;10308;42.688;23.256;2023-02-15T03:16:13;21.98;;;20.17;;
20298;SDS011;10308;42.688;23.256;2023-02-15T03:18:58;21.55;;;19.75;;
20298;SDS011;10308;42.688;23.256;2023-02-15T03:21:36;21.25;;;19.55;;
20298;SDS011;10308;42.688;23.256;2023-02-15T03:24:17;21.40;;;19.70;;
20298;SDS011;10308;42.688;23.256;2023-02-15T03:26:48;21.10;;;19.40;;
20298;SDS011;10308;42.688;23.256;2023-02-15T03:29:19;22.10;;;20.30;;
20298;SDS011;10308;42.688;23.256;2023-02-15T03:31:49;21.65;;;19.85;;
20298;SDS011;10308;42.688;23.256;2023-02-15T03:34:23;21.38;;;19.67;;
20298;SDS011;10308;42.688;23.256;2023-02-15T03:36:55;21.35;;;19.65;;
20298;SDS011;10308;42.688;23.256;2023-02-15T03:39:29;21.13;;;19.45;;
20298;SDS011;10308;42.688;23.256;2023-02-15T03:42:01;22.15;;;20.25;;
20298;SDS011;10308;42.688;23.256;2023-02-15T03:44:43;21.40;;;19.65;;
20298;SDS011;10308;42.688;23.256;2023-02-15T03:47:19;21.33;;;19.42;;
20298;SDS011;10308;42.688;23.256;2023-02-15T03:49:50;20.70;;;19.00;;
20298;SDS011;10308;42.688;23.256;2023-02-15T03:52:22;21.95;;;20.05;;
20298;SDS011;10308;42.688;23.256;2023-02-15T03:54:58;21.98;;;20.17;;
20298;SDS011;10308;42.688;23.256;2023-02-15T03:57:28;20.52;;;18.92;;
20298;SDS011;10308;42.688;23.256;2023-02-15T04:00:15;20.58;;;18.98;;
20298;SDS011;10308;42.688;23.256;2023-02-15T04:03:08;20.65;;;19.05;;
20298;SDS011;10308;42.688;23.256;2023-02-15T04:05:57;21.08;;;19.27;;
20298;SDS011;10308;42.688;23.256;2023-02-15T04:08:27;20.98;;;19.25;;
20298;SDS011;10308;42.688;23.256;2023-02-15T04:11:12;20.95;;;19.17;;
20298;SDS011;10308;42.688;23.256;2023-02-15T04:13:43;21.52;;;19.73;;
20298;SDS011;10308;42.688;23.256;2023-02-15T04:16:13;21.77;;;20.02;;
20298;SDS011;10308;42.688;23.256;2023-02-15T04:18:41;20.98;;;19.25;;
20298;SDS011;10308;42.688;23.256;2023-02-15T04:21:28;21.33;;;19.63;;
20298;SDS011;10308;42.688;23.256;2023-02-15T04:24:20;22.10;;;20.30;;
20298;SDS011;10308;42.688;23.256;2023-02-15T04:27:07;21.80;;;20.00;;
20298;SDS011;10308;42.688;23.256;2023-02-15T04:29:36;22.65;;;20.75;;
20298;SDS011;10308;42.688;23.256;2023-02-15T04:32:04;21.95;;;20.15;;
20298;SDS011;10308;42.688;23.256;2023-02-15T04:34:37;22.80;;;20.95;;
20298;SDS011;10308;42.688;23.256;2023-02-15T04:37:06;22.25;;;20.38;;
20298;SDS011;10308;42.688;23.256;2023-02-15T04:39:36;22.83;;;21.00;;
20298;SDS011;10308;42.688;23.256;2023-02-15T04:42:04;21.42;;;19.73;;
20298;SDS011;10308;42.688;23.256;2023-02-15T04:44:34;21.88;;;20.05;;
20298;SDS011;10308;42.688;23.256;2023-02-15T04:47:05;21.85;;;20.08;;
20298;SDS011;10308;42.688;23.256;2023-02-15T04:49:32;21.60;;;19.80;;
20298;SDS011;10308;42.688;23.256;2023-02-15T04:52:00;22.45;;;20.55;;
20298;SDS011;10308;42.688;23.256;2023-02-15T04:54:30;21.85;;;20.05;;
20298;SDS011;10308;42.688;23.256;2023-02-15T04:57:02;22.05;;;20.30;;
20298;SDS011;10308;42.688;23.256;2023-02-15T04:59:30;22.13;;;20.33;;
20298;SDS011;10308;42.688;23.256;2023-02-15T05:01:56;22.48;;;20.67;;
20298;SDS011;10308;42.688;23.256;2023-02-15T05:04:25;21.90;;;20.10;;
20298;SDS011;10308;42.688;23.256;2023-02-15T05:06:53;22.38;;;20.48;;
20298;SDS011;10308;42.688;23.256;2023-02-15T05:09:22;22.90;;;21.10;;
20298;SDS011;10308;42.688;23.256;2023-02-15T05:11:49;22.70;;;20.83;;
20298;SDS011;10308;42.688;23.256;2023-02-15T05:14:22;23.33;;;21.42;;
20298;SDS011;10308;42.688;23.256;2023-02-15T05:16:55;22.38;;;20.55;;
20298;SDS011;10308;42.688;23.256;2023-02-15T05:19:24;23.73;;;21.73;;
20298;SDS011;10308;42.688;23.256;2023-02-15T05:21:51;23.20;;;21.27;;
20298;SDS011;10308;42.688;23.256;2023-02-15T05:24:19;22.13;;;20.23;;
20298;SDS011;10308;42.688;23.256;2023-02-15T05:27:07;21.48;;;19.27;;
20298;SDS011;10308;42.688;23.256;2023-02-15T05:29:56;23.25;;;21.25;;
20298;SDS011;10308;42.688;23.256;2023-02-15T05:32:23;23.02;;;21.02;;
20298;SDS011;10308;42.688;23.256;2023-02-15T05:34:50;22.58;;;20.67;;
20298;SDS011;10308;42.688;23.256;2023-02-15T05:37:21;22.52;;;20.70;;
20298;SDS011;10308;42.688;23.256;2023-02-15T05:39:49;22.13;;;20.30;;
20298;SDS011;10308;42.688;23.256;2023-02-15T05:42:17;22.42;;;20.50;;
20298;SDS011;10308;42.688;23.256;2023-02-15T05:44:46;22.23;;;20.42;;
20298;SDS011;10308;42.688;23.256;2023-02-15T05:47:19;23.10;;;21.08;;
20298;SDS011;10308;42.688;23.256;2023-02-15T05:49:47;21.40;;;19.58;;
20298;SDS011;10308;42.688;23.256;2023-02-15T05:52:16;22.27;;;20.38;;
20298;SDS011;10308;42.688;23.256;2023-02-15T05:54:48;21.75;;;19.95;;
20298;SDS011;10308;42.688;23.256;2023-02-15T05:57:18;21.38;;;19.67;;
20298;SDS011;10308;42.688;23.256;2023-02-15T05:59:47;21.33;;;19.52;;
20298;SDS011;10308;42.688;23.256;2023-02-15T06:02:15;20.85;;;19.15;;
20298;SDS011;10308;42.688;23.256;2023-02-15T06:04:46;21.63;;;19.85;;
20298;SDS011;10308;42.688;23.256;2023-02-15T06:07:15;21.45;;;19.67;;
20298;SDS011;10308;42.688;23.256;2023-02-15T06:09:43;20.63;;;18.92;;
20298;SDS011;10308;42.688;23.256;2023-02-15T06:12:13;20.70;;;19.00;;
20298;SDS011;10308;42.688;23.256;2023-02-15T06:14:44;21.40;;;19.70;;
20298;SDS011;10308;42.688;23.256;2023-02-15T06:17:16;21.45;;;19.75;;
20298;SDS011;10308;42.688;23.256;2023-02-15T06:19:44;19.42;;;17.90;;
20298;SDS011;10308;42.688;23.256;2023-02-15T06:22:12;21.50;;;19.70;;
20298;SDS011;10308;42.688;23.256;2023-02-15T06:24:44;20.95;;;19.23;;
20298;SDS011;10308;42.688;23.256;2023-02-15T06:27:12;21.23;;;19.42;;
20298;SDS011;10308;42.688;23.256;2023-02-15T06:29:41;21.13;;;19.23;;
20298;SDS011;10308;42.688;23.256;2023-02-15T06:32:11;20.00;;;18.50;;
20298;SDS011;10308;42.688;23.256;2023-02-15T06:34:41;20.55;;;18.92;;
20298;SDS011;10308;42.688;23.256;2023-02-15T06:37:09;19.83;;;18.23;;
20298;SDS011;10308;42.688;23.256;2023-02-15T06:39:35;19.25;;;17.75;;
20298;SDS011;10308;42.688;23.256;2023-02-15T06:42:04;19.48;;;17.90;;
20298;SDS011;10308;42.688;23.256;2023-02-15T06:44:32;18.98;;;17.48;;
20298;SDS011;10308;42.688;23.256;2023-02-15T06:47:00;18.60;;;17.13;;
20298;SDS011;10308;42.688;23.256;2023-02-15T06:49:28;19.15;;;17.52;;
20298;SDS011;10308;42.688;23.256;2023-02-15T06:51:57;19.42;;;17.83;;
20298;SDS011;10308;42.688;23.256;2023-02-15T06:54:27;19.63;;;18.02;;
20298;SDS011;10308;42.688;23.256;2023-02-15T06:56:56;20.17;;;18.48;;
20298;SDS011;10308;42.688;23.256;2023-02-15T06:59:27;19.38;;;17.75;;
20298;SDS011;10308;42.688;23.256;2023-02-15T07:01:54;20.13;;;18.42;;
20298;SDS011;10308;42.688;23.256;2023-02-15T07:04:23;20.67;;;19.02;;
20298;SDS011;10308;42.688;23.256;2023-02-15T07:06:52;20.05;;;18.45;;
20298;SDS011;10308;42.688;23.256;2023-02-15T07:09:23;18.73;;;17.23;;
20298;SDS011;10308;42.688;23.256;2023-02-15T07:11:53;19.45;;;17.75;;
20298;SDS011;10308;42.688;23.256;2023-02-15T07:14:38;19.35;;;17.73;;
20298;SDS011;10308;42.688;23.256;2023-02-15T07:17:06;19.30;;;17.70;;
20298;SDS011;10308;42.688;23.256;2023-02-15T07:19:33;17.73;;;16.30;;
20298;SDS011;10308;42.688;23.256;2023-02-15T07:22:01;18.63;;;17.02;;
20298;SDS011;10308;42.688;23.256;2023-02-15T07:24:34;19.40;;;17.80;;
20298;SDS011;10308;42.688;23.256;2023-02-15T07:27:03;17.85;;;16.30;;
20298;SDS011;10308;42.688;23.256;2023-02-15T07:29:31;17.98;;;16.48;;
20298;SDS011;10308;42.688;23.256;2023-02-15T07:32:03;18.23;;;16.60;;
20298;SDS011;10308;42.688;23.256;2023-02-15T07:34:31;18.63;;;17.05;;
20298;SDS011;10308;42.688;23.256;2023-02-15T07:36:59;17.77;;;16.27;;
20298;SDS011;10308;42.688;23.256;2023-02-15T07:39:27;17.40;;;16.10;;
20298;SDS011;10308;42.688;23.256;2023-02-15T07:41:57;18.48;;;16.98;;
20298;SDS011;10308;42.688;23.256;2023-02-15T07:44:25;18.17;;;16.58;;
20298;SDS011;10308;42.688;23.256;2023-02-15T07:46:55;17.88;;;16.27;;
20298;SDS011;10308;42.688;23.256;2023-02-15T07:49:23;17.98;;;16.45;;
20298;SDS011;10308;42.688;23.256;2023-02-15T07:51:51;17.38;;;15.93;;
20298;SDS011;10308;42.688;23.256;2023-02-15T07:54:19;17.20;;;15.80;;
20298;SDS011;10308;42.688;23.256;2023-02-15T07:56:50;17.17;;;15.77;;
20298;SDS011;10308;42.688;23.256;2023-02-15T07:59:20;17.45;;;15.95;;
20298;SDS011;10308;42.688;23.256;2023-02-15T08:01:47;17.90;;;16.40;;
20298;SDS011;10308;42.688;23.256;2023-02-15T08:04:20;16.98;;;15.68;;
20298;SDS011;10308;42.688;23.256;2023-02-15T08:06:51;16.63;;;15.23;;
20298;SDS011;10308;42.688;23.256;2023-02-15T08:09:21;16.75;;;15.32;;
20298;SDS011;10308;42.688;23.256;2023-02-15T08:11:49;16.58;;;15.18;;
20298;SDS011;10308;42.688;23.256;2023-02-15T08:14:17;16.55;;;15.23;;
20298;SDS011;10308;42.688;23.256;2023-02-15T08:16:50;17.30;;;15.90;;
20298;SDS011;10308;42.688;23.256;2023-02-15T08:19:20;16.80;;;15.40;;
20298;SDS011;10308;42.688;23.256;2023-02-15T08:21:48;18.42;;;16.73;;
20298;SDS011;10308;42.688;23.256;2023-02-15T08:24:21;19.13;;;17.52;;
20298;SDS011;10308;42.688;23.256;2023-02-15T08:26:51;18.77;;;17.33;;
20298;SDS011;10308;42.688;23.256;2023-02-15T08:29:22;17.30;;;15.80;;
20298;SDS011;10308;42.688;23.256;2023-02-15T08:31:57;16.85;;;15.35;;
20298;SDS011;10308;42.688;23.256;2023-02-15T08:34:28;16.20;;;14.90;;
20298;SDS011;10308;42.688;23.256;2023-02-15T08:36:58;17.00;;;15.50;;
20298;SDS011;10308;42.688;23.256;2023-02-15T08:39:27;16.05;;;14.75;;
20298;SDS011;10308;42.688;23.256;2023-02-15T08:41:55;16.50;;;15.10;;
20298;SDS011;10308;42.688;23.256;2023-02-15T08:44:25;16.77;;;15.38;;
20298;SDS011;10308;42.688;23.256;2023-02-15T08:46:55;17.83;;;16.33;;
20298;SDS011;10308;42.688;23.256;2023-02-15T08:49:29;19.55;;;17.95;;
20298;SDS011;10308;42.688;23.256;2023-02-15T08:51:57;16.88;;;15.43;;
20298;SDS011;10308;42.688;23.256;2023-02-15T08:54:31;16.73;;;15.43;;
20298;SDS011;10308;42.688;23.256;2023-02-15T08:56:58;16.55;;;15.15;;
20298;SDS011;10308;42.688;23.256;2023-02-15T08:59:34;17.67;;;16.17;;
20298;SDS011;10308;42.688;23.256;2023-02-15T09:02:05;17.45;;;15.93;;
20298;SDS011;10308;42.688;23.256;2023-02-15T09:04:34;15.95;;;14.65;;
20298;SDS011;10308;42.688;23.256;2023-02-15T09:07:05;16.25;;;14.95;;
20298;SDS011;10308;42.688;23.256;2023-02-15T09:09:35;16.90;;;15.57;;
20298;SDS011;10308;42.688;23.256;2023-02-15T09:12:07;17.13;;;15.65;;
20298;SDS011;10308;42.688;23.256;2023-02-15T09:14:42;17.98;;;16.58;;
20298;SDS011;10308;42.688;23.256;2023-02-15T09:17:10;17.30;;;15.90;;
20298;SDS011;10308;42.688;23.256;2023-02-15T09:19:43;18.05;;;16.50;;
20298;SDS011;10308;42.688;23.256;2023-02-15T09:22:12;19.17;;;17.58;;
20298;SDS011;10308;42.688;23.256;2023-02-15T09:24:42;18.75;;;17.10;;
20298;SDS011;10308;42.688;23.256;2023-02-15T09:27:14;18.95;;;17.45;;
20298;SDS011;10308;42.688;23.256;2023-02-15T09:29:47;18.55;;;17.00;;
20298;SDS011;10308;42.688;23.256;2023-02-15T09:32:15;17.77;;;16.27;;
20298;SDS011;10308;42.688;23.256;2023-02-15T09:34:50;18.13;;;16.63;;
20298;SDS011;10308;42.688;23.256;2023-02-15T09:37:18;19.08;;;17.48;;
20298;SDS011;10308;42.688;23.256;2023-02-15T09:39:47;19.17;;;17.58;;
20298;SDS011;10308;42.688;23.256;2023-02-15T09:45:31;20.42;;;18.70;;
20298;SDS011;10308;42.688;23.256;2023-02-15T09:48:19;19.20;;;17.60;;
20298;SDS011;10308;42.688;23.256;2023-02-15T09:51:28;20.60;;;18.80;;
20298;SDS011;10308;42.688;23.256;2023-02-15T09:54:33;19.25;;;17.65;;
20298;SDS011;10308;42.688;23.256;2023-02-15T09:57:10;20.27;;;18.58;;
20298;SDS011;10308;42.688;23.256;2023-02-15T09:59:51;19.27;;;17.67;;
20298;SDS011;10308;42.688;23.256;2023-02-15T10:02:37;19.75;;;18.05;;
20298;SDS011;10308;42.688;23.256;2023-02-15T10:05:16;19.27;;;17.67;;
20298;SDS011;10308;42.688;23.256;2023-02-15T10:08:09;18.63;;;16.92;;
20298;SDS011;10308;42.688;23.256;2023-02-15T10:11:09;18.52;;;16.95;;
20298;SDS011;10308;42.688;23.256;2023-02-15T10:13:59;18.70;;;17.00;;
20298;SDS011;10308;42.688;23.256;2023-02-15T10:16:38;18.70;;;17.10;;
20298;SDS011;10308;42.688;23.256;2023-02-15T10:19:16;18.40;;;16.90;;
20298;SDS011;10308;42.688;23.256;2023-02-15T10:21:58;20.90;;;19.13;;
20298;SDS011;10308;42.688;23.256;2023-02-15T10:27:46;20.52;;;18.92;;
20298;SDS011;10308;42.688;23.256;2023-02-15T10:30:14;19.05;;;17.25;;
20298;SDS011;10308;42.688;23.256;2023-02-15T10:32:47;19.55;;;17.85;;
20298;SDS011;10308;42.688;23.256;2023-02-15T10:35:30;20.30;;;18.48;;
20298;SDS011;10308;42.688;23.256;2023-02-15T10:38:10;20.83;;;19.13;;
20298;SDS011;10308;42.688;23.256;2023-02-15T10:40:46;19.88;;;18.33;;
20298;SDS011;10308;42.688;23.256;2023-02-15T10:43:26;20.95;;;19.15;;
20298;SDS011;10308;42.688;23.256;2023-02-15T10:46:19;19.83;;;18.13;;
20298;SDS011;10308;42.688;23.256;2023-02-15T10:49:05;20.30;;;18.65;;
20298;SDS011;10308;42.688;23.256;2023-02-15T10:51:46;20.90;;;19.05;;
20298;SDS011;10308;42.688;23.256;2023-02-15T10:54:24;19.55;;;17.80;;
20298;SDS011;10308;42.688;23.256;2023-02-15T10:57:04;20.67;;;18.98;;
20298;SDS011;10308;42.688;23.256;2023-02-15T10:59:48;21.02;;;19.23;;
20298;SDS011;10308;42.688;23.256;2023-02-15T11:02:24;20.02;;;18.33;;
20298;SDS011;10308;42.688;23.256;2023-02-15T11:04:57;20.40;;;18.50;;
20298;SDS011;10308;42.688;23.256;2023-02-15T11:07:38;21.25;;;19.55;;
20298;SDS011;10308;42.688;23.256;2023-02-15T11:10:14;21.02;;;19.23;;
20298;SDS011;10308;42.688;23.256;2023-02-15T11:12:53;20.52;;;18.83;;
20298;SDS011;10308;42.688;23.256;2023-02-15T11:15:29;21.15;;;19.45;;
20298;SDS011;10308;42.688;23.256;2023-02-15T11:18:03;22.50;;;20.70;;
20298;SDS011;10308;42.688;23.256;2023-02-15T11:20:38;22.17;;;20.38;;
20298;SDS011;10308;42.688;23.256;2023-02-15T11:23:17;20.58;;;18.77;;
20298;SDS011;10308;42.688;23.256;2023-02-15T11:25:57;20.98;;;19.17;;
20298;SDS011;10308;42.688;23.256;2023-02-15T11:28:37;20.00;;;18.30;;
20298;SDS011;10308;42.688;23.256;2023-02-15T11:31:12;20.17;;;18.48;;
20298;SDS011;10308;42.688;23.256;2023-02-15T11:33:44;19.95;;;18.25;;
20298;SDS011;10308;42.688;23.256;2023-02-15T11:36:17;20.35;;;18.65;;
20298;SDS011;10308;42.688;23.256;2023-02-15T11:38:50;20.55;;;18.83;;
20298;SDS011;10308;42.688;23.256;2023-02-15T11:41:25;19.70;;;18.10;;
20298;SDS011;10308;42.688;23.256;2023-02-15T11:43:57;20.75;;;18.95;;
20298;SDS011;10308;42.688;23.256;2023-02-15T11:46:28;20.23;;;18.50;;
20298;SDS011;10308;42.688;23.256;2023-02-15T11:48:57;19.80;;;18.30;;
20298;SDS011;10308;42.688;23.256;2023-02-15T11:51:26;20.17;;;18.50;;
20298;SDS011;10308;42.688;23.256;2023-02-15T11:53:57;20.98;;;18.98;;
20298;SDS011;10308;42.688;23.256;2023-02-15T11:56:25;21.70;;;19.95;;
20298;SDS011;10308;42.688;23.256;2023-02-15T11:58:55;21.60;;;19.77;;
20298;SDS011;10308;42.688;23.256;2023-02-15T12:01:28;21.50;;;19.70;;
20298;SDS011;10308;42.688;23.256;2023-02-15T12:04:04;20.75;;;18.95;;
20298;SDS011;10308;42.688;23.256;2023-02-15T12:06:36;20.55;;;18.85;;
20298;SDS011;10308;42.688;23.256;2023-02-15T12:09:20;19.63;;;18.02;;
20298;SDS011;10308;42.688;23.256;2023-02-15T12:11:51;21.33;;;19.33;;
20298;SDS011;10308;42.688;23.256;2023-02-15T12:14:18;21.45;;;19.75;;
20298;SDS011;10308;42.688;23.256;2023-02-15T12:16:48;20.70;;;18.90;;
20298;SDS011;10308;42.688;23.256;2023-02-15T12:22:28;20.17;;;18.50;;
20298;SDS011;10308;42.688;23.256;2023-02-15T12:25:25;20.58;;;18.88;;
20298;SDS011;10308;42.688;23.256;2023-02-15T12:28:21;20.90;;;19.20;;
20298;SDS011;10308;42.688;23.256;2023-02-15T12:31:19;19.75;;;18.15;;
20298;SDS011;10308;42.688;23.256;2023-02-15T12:34:09;17.52;;;15.93;;
20298;SDS011;10308;42.688;23.256;2023-02-15T12:36:44;17.77;;;16.17;;
20298;SDS011;10308;42.688;23.256;2023-02-15T12:39:50;19.00;;;17.13;;
20298;SDS011;10308;42.688;23.256;2023-02-15T12:42:48;18.58;;;16.88;;
20298;SDS011;10308;42.688;23.256;2023-02-15T12:45:34;17.42;;;15.77;;
20298;SDS011;10308;42.688;23.256;2023-02-15T12:48:25;18.98;;;17.17;;
20298;SDS011;10308;42.688;23.256;2023-02-15T12:50:53;17.55;;;15.85;;
20298;SDS011;10308;42.688;23.256;2023-02-15T12:53:37;18.75;;;17.02;;
20298;SDS011;10308;42.688;23.256;2023-02-15T12:56:06;17.88;;;16.15;;
20298;SDS011;10308;42.688;23.256;2023-02-15T12:58:38;18.10;;;16.30;;
20298;SDS011;10308;42.688;23.256;2023-02-15T13:01:12;18.50;;;16.80;;
20298;SDS011;10308;42.688;23.256;2023-02-15T13:03:57;19.30;;;17.40;;
20298;SDS011;10308;42.688;23.256;2023-02-15T13:06:26;18.92;;;17.13;;
20298;SDS011;10308;42.688;23.256;2023-02-15T13:08:55;17.75;;;16.15;;
20298;SDS011;10308;42.688;23.256;2023-02-15T13:11:28;17.63;;;16.00;;
20298;SDS011;10308;42.688;23.256;2023-02-15T13:14:03;17.45;;;15.82;;
20298;SDS011;10308;42.688;23.256;2023-02-15T13:16:45;18.48;;;16.85;;
20298;SDS011;10308;42.688;23.256;2023-02-15T13:19:17;18.10;;;16.40;;
20298;SDS011;10308;42.688;23.256;2023-02-15T13:21:47;18.00;;;16.30;;
20298;SDS011;10308;42.688;23.256;2023-02-15T13:24:17;17.77;;;16.17;;
20298;SDS011;10308;42.688;23.256;2023-02-15T13:26:52;17.65;;;16.02;;
20298;SDS011;10308;42.688;23.256;2023-02-15T13:29:25;19.08;;;17.17;;
20298;SDS011;10308;42.688;23.256;2023-02-15T13:31:54;18.13;;;16.50;;
20298;SDS011;10308;42.688;23.256;2023-02-15T13:34:28;17.95;;;16.30;;
20298;SDS011;10308;42.688;23.256;2023-02-15T13:36:59;18.60;;;16.80;;
20298;SDS011;10308;42.688;23.256;2023-02-15T13:39:36;17.70;;;16.10;;
20298;SDS011;10308;42.688;23.256;2023-02-15T13:42:17;17.55;;;15.82;;
20298;SDS011;10308;42.688;23.256;2023-02-15T13:45:00;18.40;;;16.60;;
20298;SDS011;10308;42.688;23.256;2023-02-15T13:47:36;17.67;;;16.08;;
20298;SDS011;10308;42.688;23.256;2023-02-15T13:50:18;18.08;;;16.38;;
20298;SDS011;10308;42.688;23.256;2023-02-15T13:53:08;17.95;;;16.35;;
20298;SDS011;10308;42.688;23.256;2023-02-15T13:55:54;19.02;;;17.23;;
20298;SDS011;10308;42.688;23.256;2023-02-15T13:58:36;18.75;;;16.98;;
20298;SDS011;10308;42.688;23.256;2023-02-15T14:01:17;19.55;;;17.75;;
20298;SDS011;10308;42.688;23.256;2023-02-15T14:03:52;19.60;;;17.70;;
20298;SDS011;10308;42.688;23.256;2023-02-15T14:09:33;18.65;;;16.92;;
20298;SDS011;10308;42.688;23.256;2023-02-15T14:12:23;18.83;;;17.13;;
20298;SDS011;10308;42.688;23.256;2023-02-15T14:18:18;19.73;;;17.85;;
20298;SDS011;10308;42.688;23.256;2023-02-15T14:20:56;20.27;;;18.38;;
20298;SDS011;10308;42.688;23.256;2023-02-15T14:23:37;19.35;;;17.52;;
20298;SDS011;10308;42.688;23.256;2023-02-15T14:26:12;19.65;;;17.77;;
20298;SDS011;10308;42.688;23.256;2023-02-15T14:28:55;20.42;;;18.52;;
20298;SDS011;10308;42.688;23.256;2023-02-15T14:31:47;18.80;;;17.10;;
20298;SDS011;10308;42.688;23.256;2023-02-15T14:34:25;19.52;;;17.75;;
20298;SDS011;10308;42.688;23.256;2023-02-15T14:37:04;19.75;;;17.95;;
20298;SDS011;10308;42.688;23.256;2023-02-15T14:39:35;20.23;;;18.30;;
20298;SDS011;10308;42.688;23.256;2023-02-15T14:42:25;21.45;;;19.50;;
20298;SDS011;10308;42.688;23.256;2023-02-15T14:45:01;21.02;;;19.02;;
20298;SDS011;10308;42.688;23.256;2023-02-15T14:47:33;21.60;;;19.45;;
20298;SDS011;10308;42.688;23.256;2023-02-15T14:53:18;21.27;;;19.25;;
20298;SDS011;10308;42.688;23.256;2023-02-15T14:58:59;22.48;;;20.48;;
20298;SDS011;10308;42.688;23.256;2023-02-15T15:01:56;22.80;;;20.80;;
20298;SDS011;10308;42.688;23.256;2023-02-15T15:04:34;22.05;;;20.20;;
20298;SDS011;10308;42.688;23.256;2023-02-15T15:07:12;22.17;;;20.20;;
20298;SDS011;10308;42.688;23.256;2023-02-15T15:09:59;22.35;;;20.38;;
20298;SDS011;10308;42.688;23.256;2023-02-15T15:12:41;21.55;;;19.73;;
20298;SDS011;10308;42.688;23.256;2023-02-15T15:15:13;22.90;;;20.90;;